Terminal Aerodrome Forecast
Issued by NWS

Home | Current Version | Previous Version | Graphics & Text | Print | Product List | Glossary On
Versions: 1 2 3 4 5 6 7 8 9 10 11 12 13 14
000
FTUS43 KBIS 301100
TAFMOT
TAF
KMOT 301132Z 3012/3112 25005KT P6SM VCFG SCT060
     FM301400 35005KT P6SM SCT060
     FM310200 04004KT P6SM SCT060
     FM310600 21005KT P6SM SKC=

USA.gov is the U.S. government's official web portal to all federal, state and local government web resources and services.